Time;durP1;ratioP1;P1;durP2;ratioP2;P2;SDS_P1;SDS_P2;PMS_P1;PMS_P2;Temp;Humidity;BMP_temperature;BMP_pressure;BME280_temperature;BME280_humidity;BME280_pressure;Samples;Min_cycle;Max_cycle;Signal;HPM_P1;HPM_P2
2024/03/29 01:44:59;;;;;;;1999.90;999.90;;;;;;;;;;5029330;28;20056;-84
2024/03/29 01:47:26;;;;;;;1999.90;999.90;;;;;;;;;;5051928;28;20049;-83
2024/03/29 01:49:53;;;;;;;1999.90;999.90;;;;;;;;;;5049412;28;20044;-83
2024/03/29 01:52:21;;;;;;;1999.90;999.90;;;;;;;;;;5050459;28;20048;-82
2024/03/29 01:54:49;;;;;;;1999.90;999.90;;;;;;;;;;5049312;28;20052;-86
2024/03/29 01:57:17;;;;;;;1999.90;999.90;;;;;;;;;;5049122;28;20445;-85
2024/03/29 01:59:46;;;;;;;1999.90;999.90;;;;;;;;;;5048346;28;20056;-82
2024/03/29 02:02:14;;;;;;;1999.90;999.90;;;;;;;;;;5049958;28;20045;-82
2024/03/29 02:04:40;;;;;;;1999.90;999.90;;;;;;;;;;5047051;28;20049;-83
2024/03/29 02:07:07;;;;;;;1999.90;999.90;;;;;;;;;;5050134;28;20353;-82
2024/03/29 02:09:34;;;;;;;1999.90;999.90;;;;;;;;;;5049198;28;20520;-83
2024/03/29 02:12:02;;;;;;;1999.90;999.90;;;;;;;;;;5049260;28;20041;-84
2024/03/29 02:14:28;;;;;;;1999.90;999.90;;;;;;;;;;5049591;28;20041;-81
2024/03/29 02:16:55;;;;;;;1999.90;999.90;;;;;;;;;;5048185;28;20048;-82
2024/03/29 02:19:21;;;;;;;1999.90;999.90;;;;;;;;;;5048541;28;20067;-81
2024/03/29 02:21:50;;;;;;;1999.90;999.90;;;;;;;;;;5048570;28;20064;-83
2024/03/29 02:24:18;;;;;;;1999.90;999.90;;;;;;;;;;5048434;28;20067;-83
2024/03/29 02:26:46;;;;;;;1999.90;999.90;;;;;;;;;;5048577;28;20071;-86
2024/03/29 02:29:13;;;;;;;1999.90;999.90;;;;;;;;;;5049612;28;20041;-83
2024/03/29 02:31:40;;;;;;;1999.90;999.90;;;;;;;;;;5047208;28;20048;-84
2024/03/29 02:34:07;;;;;;;1999.90;999.90;;;;;;;;;;5047481;28;20522;-84
2024/03/29 02:36:34;;;;;;;1999.90;999.90;;;;;;;;;;5049291;28;20084;-82
2024/03/29 02:39:00;;;;;;;1999.90;999.90;;;;;;;;;;5048480;28;20056;-82
2024/03/29 02:41:29;;;;;;;1999.90;999.90;;;;;;;;;;5049109;28;20048;-84
2024/03/29 02:43:56;;;;;;;1999.90;999.90;;;;;;;;;;5046922;28;20045;-82
2024/03/29 02:46:23;;;;;;;1999.90;999.90;;;;;;;;;;5045549;28;20057;-84
2024/03/29 02:48:48;;;;;;;1999.90;999.90;;;;;;;;;;5047965;28;20057;-84
2024/03/29 02:51:15;;;;;;;1999.90;999.90;;;;;;;;;;5047737;28;20049;-82
2024/03/29 02:53:40;;;;;;;1999.90;999.90;;;;;;;;;;5049405;28;20052;-82
2024/03/29 02:56:07;;;;;;;1999.90;999.90;;;;;;;;;;5048417;28;20425;-85
2024/03/29 02:58:34;;;;;;;1999.90;999.90;;;;;;;;;;5048471;28;20087;-84
2024/03/29 03:01:06;;;;;;;1999.90;999.90;;;;;;;;;;5048227;28;20045;-82
2024/03/29 03:03:32;;;;;;;1999.90;999.90;;;;;;;;;;5048578;28;20050;-85
2024/03/29 03:05:58;;;;;;;1999.90;999.90;;;;;;;;;;5049318;28;20087;-84
2024/03/29 03:11:09;;;;;;;1999.90;999.90;;;;;;;;;;5048809;28;20056;-85
2024/03/29 03:13:37;;;;;;;1999.90;999.90;;;;;;;;;;5046686;28;20718;-82
2024/03/29 03:16:04;;;;;;;1999.90;999.90;;;;;;;;;;5048607;28;20465;-83
2024/03/29 03:18:29;;;;;;;1999.90;999.90;;;;;;;;;;5045988;28;20053;-82
2024/03/29 03:20:57;;;;;;;1999.90;999.90;;;;;;;;;;5048325;28;20049;-82
2024/03/29 03:23:23;;;;;;;1999.90;999.90;;;;;;;;;;5048179;28;20041;-82
2024/03/29 03:25:54;;;;;;;1999.90;999.90;;;;;;;;;;5046453;28;20596;-82
2024/03/29 03:28:20;;;;;;;1999.90;999.90;;;;;;;;;;5048990;28;20076;-82
2024/03/29 03:30:48;;;;;;;1999.90;999.90;;;;;;;;;;5048360;28;20473;-82
2024/03/29 03:33:14;;;;;;;1999.90;999.90;;;;;;;;;;5049727;28;20459;-82
2024/03/29 03:35:40;;;;;;;1999.90;999.90;;;;;;;;;;5052455;28;20288;-82
2024/03/29 03:38:07;;;;;;;1999.90;999.90;;;;;;;;;;5052298;28;20045;-83
2024/03/29 03:40:34;;;;;;;1999.90;999.90;;;;;;;;;;5052742;28;20485;-84
2024/03/29 03:42:59;;;;;;;1999.90;999.90;;;;;;;;;;5052767;28;20053;-83
2024/03/29 03:45:26;;;;;;;1999.90;999.90;;;;;;;;;;5052446;28;20052;-82
2024/03/29 03:47:52;;;;;;;1999.90;999.90;;;;;;;;;;5052281;28;20531;-84
2024/03/29 03:50:19;;;;;;;1999.90;999.90;;;;;;;;;;5051929;28;20053;-82
2024/03/29 03:52:44;;;;;;;1999.90;999.90;;;;;;;;;;5052338;28;20040;-85
2024/03/29 03:55:11;;;;;;;1999.90;999.90;;;;;;;;;;5052156;28;20048;-84
2024/03/29 03:57:37;;;;;;;1999.90;999.90;;;;;;;;;;5052458;28;20056;-82
2024/03/29 04:00:05;;;;;;;1999.90;999.90;;;;;;;;;;5052379;28;20052;-83
2024/03/29 04:02:30;;;;;;;1999.90;999.90;;;;;;;;;;5051449;28;20037;-83
2024/03/29 04:04:58;;;;;;;1999.90;999.90;;;;;;;;;;5052348;28;20048;-83
2024/03/29 04:07:25;;;;;;;1999.90;999.90;;;;;;;;;;5050012;28;20438;-82
2024/03/29 04:09:51;;;;;;;1999.90;999.90;;;;;;;;;;5051568;28;20067;-82
2024/03/29 04:12:17;;;;;;;1999.90;999.90;;;;;;;;;;5051806;28;20052;-82
2024/03/29 04:14:44;;;;;;;1999.90;999.90;;;;;;;;;;5050882;28;20508;-82
2024/03/29 04:17:09;;;;;;;1999.90;999.90;;;;;;;;;;5050739;28;20545;-84
2024/03/29 04:19:36;;;;;;;1999.90;999.90;;;;;;;;;;5051532;28;20049;-82
2024/03/29 04:22:03;;;;;;;1999.90;999.90;;;;;;;;;;5047610;28;20061;-82
2024/03/29 04:24:30;;;;;;;1999.90;999.90;;;;;;;;;;5051095;28;20045;-83
2024/03/29 04:26:55;;;;;;;1999.90;999.90;;;;;;;;;;5052185;28;20045;-83
2024/03/29 04:29:22;;;;;;;1999.90;999.90;;;;;;;;;;5050451;28;20424;-82
2024/03/29 04:31:47;;;;;;;1999.90;999.90;;;;;;;;;;5050446;28;20052;-83
2024/03/29 04:34:14;;;;;;;1999.90;999.90;;;;;;;;;;5051112;28;20045;-83
2024/03/29 04:36:40;;;;;;;1999.90;999.90;;;;;;;;;;5051358;28;20492;-83
2024/03/29 04:39:08;;;;;;;1999.90;999.90;;;;;;;;;;5049737;28;20049;-85
2024/03/29 04:41:35;;;;;;;1999.90;999.90;;;;;;;;;;5051334;28;20063;-82
2024/03/29 04:44:02;;;;;;;1999.90;999.90;;;;;;;;;;5048312;28;20049;-84
2024/03/29 04:46:31;;;;;;;1999.90;999.90;;;;;;;;;;5050771;28;20072;-84
2024/03/29 04:48:58;;;;;;;1999.90;999.90;;;;;;;;;;5051300;28;20405;-83
2024/03/29 04:51:25;;;;;;;1999.90;999.90;;;;;;;;;;5048559;28;20121;-84
2024/03/29 04:53:51;;;;;;;1999.90;999.90;;;;;;;;;;5051181;28;20048;-81
2024/03/29 04:56:19;;;;;;;1999.90;999.90;;;;;;;;;;5051364;28;20482;-82
2024/03/29 04:58:46;;;;;;;1999.90;999.90;;;;;;;;;;5050661;28;20057;-85
2024/03/29 05:01:13;;;;;;;1999.90;999.90;;;;;;;;;;5048461;28;20578;-82
2024/03/29 05:03:39;;;;;;;1999.90;999.90;;;;;;;;;;5051523;28;20064;-84
2024/03/29 05:06:06;;;;;;;1999.90;999.90;;;;;;;;;;5051580;28;20051;-84
2024/03/29 05:08:32;;;;;;;1999.90;999.90;;;;;;;;;;5049365;28;20052;-84
2024/03/29 05:10:59;;;;;;;1999.90;999.90;;;;;;;;;;5051108;28;20041;-82
2024/03/29 05:13:27;;;;;;;1999.90;999.90;;;;;;;;;;5047085;28;20049;-83
2024/03/29 05:15:53;;;;;;;1999.90;999.90;;;;;;;;;;5048847;28;20449;-83
2024/03/29 05:18:20;;;;;;;1999.90;999.90;;;;;;;;;;5050007;28;20053;-82
2024/03/29 05:20:50;;;;;;;1999.90;999.90;;;;;;;;;;5049150;28;20524;-83
2024/03/29 05:23:17;;;;;;;1999.90;999.90;;;;;;;;;;5049811;28;20061;-85
2024/03/29 05:25:43;;;;;;;1999.90;999.90;;;;;;;;;;5050270;28;20056;-84
2024/03/29 05:28:10;;;;;;;1999.90;999.90;;;;;;;;;;5050400;28;20041;-84
2024/03/29 05:30:44;;;;;;;1999.90;999.90;;;;;;;;;;5050184;28;20080;-83
2024/03/29 05:33:10;;;;;;;1999.90;999.90;;;;;;;;;;5049075;28;20049;-82
2024/03/29 05:35:37;;;;;;;1999.90;999.90;;;;;;;;;;5047512;28;20512;-83
2024/03/29 05:38:03;;;;;;;1999.90;999.90;;;;;;;;;;5050512;28;20349;-84
2024/03/29 05:40:30;;;;;;;1999.90;999.90;;;;;;;;;;5050498;28;20048;-84
2024/03/29 05:42:56;;;;;;;1999.90;999.90;;;;;;;;;;5048371;28;20053;-82
2024/03/29 05:45:24;;;;;;;1999.90;999.90;;;;;;;;;;5049223;28;20056;-84
2024/03/29 05:47:52;;;;;;;1999.90;999.90;;;;;;;;;;5048520;28;20497;-82
2024/03/29 05:50:19;;;;;;;1999.90;999.90;;;;;;;;;;5049181;28;20698;-83
2024/03/29 05:52:45;;;;;;;1999.90;999.90;;;;;;;;;;5048961;28;20056;-83
2024/03/29 05:55:12;;;;;;;1999.90;999.90;;;;;;;;;;5049017;28;20044;-83
2024/03/29 05:57:41;;;;;;;1999.90;999.90;;;;;;;;;;5048505;28;20055;-82
2024/03/29 06:00:09;;;;;;;1999.90;999.90;;;;;;;;;;5048603;28;20512;-83
2024/03/29 06:02:36;;;;;;;1999.90;999.90;;;;;;;;;;5048756;28;20046;-82
2024/03/29 06:05:04;;;;;;;1999.90;999.90;;;;;;;;;;5047798;28;20045;-83
2024/03/29 06:07:33;;;;;;;1999.90;999.90;;;;;;;;;;5047747;28;20065;-82
2024/03/29 06:10:00;;;;;;;1999.90;999.90;;;;;;;;;;5048437;28;20076;-85
2024/03/29 06:12:26;;;;;;;1999.90;999.90;;;;;;;;;;5048855;28;20100;-82
2024/03/29 06:17:37;;;;;;;1999.90;999.90;;;;;;;;;;5047185;28;20064;-82
2024/03/29 06:20:06;;;;;;;1999.90;999.90;;;;;;;;;;5049949;28;20049;-82
2024/03/29 06:22:32;;;;;;;1999.90;999.90;;;;;;;;;;5047061;28;20063;-84
2024/03/29 06:25:04;;;;;;;1999.90;999.90;;;;;;;;;;5049919;28;20045;-85
2024/03/29 06:27:31;;;;;;;1999.90;999.90;;;;;;;;;;5049079;28;20076;-83
2024/03/29 06:29:57;;;;;;;1999.90;999.90;;;;;;;;;;5049439;28;20511;-82
2024/03/29 06:32:24;;;;;;;1999.90;999.90;;;;;;;;;;5047824;28;20045;-84
2024/03/29 06:34:51;;;;;;;1999.90;999.90;;;;;;;;;;5049826;28;20045;-82
2024/03/29 06:37:20;;;;;;;1999.90;999.90;;;;;;;;;;5046787;28;20468;-84
2024/03/29 06:39:47;;;;;;;1999.90;999.90;;;;;;;;;;5046973;28;20118;-82
2024/03/29 06:42:13;;;;;;;1999.90;999.90;;;;;;;;;;5048950;28;20041;-84
2024/03/29 06:44:40;;;;;;;1999.90;999.90;;;;;;;;;;5049273;28;20049;-82
2024/03/29 06:47:08;;;;;;;1999.90;999.90;;;;;;;;;;5048882;28;20509;-83
2024/03/29 06:49:35;;;;;;;1999.90;999.90;;;;;;;;;;5048442;28;20060;-83
2024/03/29 06:52:02;;;;;;;1999.90;999.90;;;;;;;;;;5047389;28;20048;-82
2024/03/29 06:54:30;;;;;;;1999.90;999.90;;;;;;;;;;5048004;28;20131;-82
2024/03/29 06:56:57;;;;;;;1999.90;999.90;;;;;;;;;;5048690;28;20385;-82
2024/03/29 06:59:24;;;;;;;1999.90;999.90;;;;;;;;;;5046865;28;20045;-84
2024/03/29 07:01:51;;;;;;;1999.90;999.90;;;;;;;;;;5048921;28;20049;-83
2024/03/29 07:04:19;;;;;;;1999.90;999.90;;;;;;;;;;5046986;28;20148;-83
2024/03/29 07:06:47;;;;;;;1999.90;999.90;;;;;;;;;;5044297;28;20051;-83
2024/03/29 07:09:14;;;;;;;1999.90;999.90;;;;;;;;;;5049480;28;20041;-85
2024/03/29 07:11:42;;;;;;;1999.90;999.90;;;;;;;;;;5047436;28;20045;-86
2024/03/29 07:14:08;;;;;;;1999.90;999.90;;;;;;;;;;5048994;28;20052;-84
2024/03/29 07:16:35;;;;;;;1999.90;999.90;;;;;;;;;;5048384;28;20076;-85
2024/03/29 07:19:02;;;;;;;1999.90;999.90;;;;;;;;;;5048332;28;20429;-83
2024/03/29 07:21:29;;;;;;;1999.90;999.90;;;;;;;;;;5047566;28;20269;-85
2024/03/29 07:23:55;;;;;;;1999.90;999.90;;;;;;;;;;5046548;28;20046;-84
2024/03/29 07:26:22;;;;;;;1999.90;999.90;;;;;;;;;;5047533;28;20052;-86
2024/03/29 07:28:50;;;;;;;1999.90;999.90;;;;;;;;;;5046660;28;20049;-84
2024/03/29 07:31:16;;;;;;;1999.90;999.90;;;;;;;;;;5048103;28;20485;-84
2024/03/29 07:33:43;;;;;;;1999.90;999.90;;;;;;;;;;5046299;28;20049;-84
2024/03/29 07:36:10;;;;;;;1999.90;999.90;;;;;;;;;;5047249;28;20067;-86
2024/03/29 07:38:37;;;;;;;1999.90;999.90;;;;;;;;;;5048460;28;20049;-83
2024/03/29 07:41:06;;;;;;;1999.90;999.90;;;;;;;;;;5044980;28;20076;-85
2024/03/29 07:43:39;;;;;;;1999.90;999.90;;;;;;;;;;5046891;28;20377;-84
2024/03/29 07:46:08;;;;;;;1999.90;999.90;;;;;;;;;;5048494;28;20057;-85
2024/03/29 07:48:35;;;;;;;1999.90;999.90;;;;;;;;;;5048520;28;20083;-84
2024/03/29 07:51:01;;;;;;;1999.90;999.90;;;;;;;;;;5047114;28;20405;-84
2024/03/29 07:53:28;;;;;;;1999.90;999.90;;;;;;;;;;5047988;28;20461;-84
2024/03/29 07:55:55;;;;;;;1999.90;999.90;;;;;;;;;;5048516;28;20052;-84
2024/03/29 07:58:21;;;;;;;1999.90;999.90;;;;;;;;;;5047064;28;20049;-86
2024/03/29 08:00:48;;;;;;;1999.90;999.90;;;;;;;;;;5049210;28;20045;-86
2024/03/29 08:03:16;;;;;;;1999.90;999.90;;;;;;;;;;5045681;28;20037;-84
2024/03/29 08:05:42;;;;;;;1999.90;999.90;;;;;;;;;;5047822;28;20056;-84
2024/03/29 08:08:09;;;;;;;1999.90;999.90;;;;;;;;;;5047776;28;20041;-84
2024/03/29 08:10:35;;;;;;;1999.90;999.90;;;;;;;;;;5045846;28;20056;-84
2024/03/29 08:13:02;;;;;;;1999.90;999.90;;;;;;;;;;5046826;28;20374;-82
2024/03/29 08:15:28;;;;;;;1999.90;999.90;;;;;;;;;;5046824;28;20083;-83
2024/03/29 08:17:55;;;;;;;1999.90;999.90;;;;;;;;;;5046586;28;20045;-85
2024/03/29 08:20:29;;;;;;;1999.90;999.90;;;;;;;;;;5050473;28;20049;-84
2024/03/29 08:22:58;;;;;;;1999.90;999.90;;;;;;;;;;5047493;28;20053;-84
2024/03/29 08:25:26;;;;;;;1999.90;999.90;;;;;;;;;;5051613;28;20051;-83
2024/03/29 08:27:58;;;;;;;1999.90;999.90;;;;;;;;;;5050623;28;20064;-86
2024/03/29 08:30:26;;;;;;;1999.90;999.90;;;;;;;;;;5050146;28;20488;-84
2024/03/29 08:32:52;;;;;;;1999.90;999.90;;;;;;;;;;5052002;28;20500;-83
2024/03/29 08:35:19;;;;;;;1999.90;999.90;;;;;;;;;;5050891;28;20048;-84
2024/03/29 08:37:47;;;;;;;1999.90;999.90;;;;;;;;;;5049849;28;20055;-84
2024/03/29 08:40:14;;;;;;;1999.90;999.90;;;;;;;;;;5048794;28;20045;-85
2024/03/29 08:42:40;;;;;;;1999.90;999.90;;;;;;;;;;5050682;28;20056;-85
2024/03/29 08:45:09;;;;;;;1999.90;999.90;;;;;;;;;;5051333;28;20439;-84
2024/03/29 08:47:36;;;;;;;1999.90;999.90;;;;;;;;;;5050411;28;20145;-85
2024/03/29 08:50:03;;;;;;;1999.90;999.90;;;;;;;;;;5051604;28;20056;-85
2024/03/29 08:52:30;;;;;;;1999.90;999.90;;;;;;;;;;5050030;28;20057;-84
2024/03/29 08:54:58;;;;;;;1999.90;999.90;;;;;;;;;;5053411;28;20064;-86
2024/03/29 08:57:24;;;;;;;1999.90;999.90;;;;;;;;;;5049687;28;20478;-85
2024/03/29 08:59:51;;;;;;;1999.90;999.90;;;;;;;;;;5051526;28;20053;-85
2024/03/29 09:02:18;;;;;;;1999.90;999.90;;;;;;;;;;5051947;28;20057;-86
2024/03/29 09:04:45;;;;;;;1999.90;999.90;;;;;;;;;;5051397;28;20045;-84
2024/03/29 09:07:11;;;;;;;1999.90;999.90;;;;;;;;;;5049312;28;20114;-84
2024/03/29 09:09:41;;;;;;;1999.90;999.90;;;;;;;;;;5050747;28;20059;-86
2024/03/29 09:12:09;;;;;;;1999.90;999.90;;;;;;;;;;5049169;28;20037;-85
2024/03/29 09:14:35;;;;;;;1999.90;999.90;;;;;;;;;;5051368;28;20053;-85
2024/03/29 09:17:03;;;;;;;1999.90;999.90;;;;;;;;;;5051146;28;20053;-85
2024/03/29 09:19:31;;;;;;;1999.90;999.90;;;;;;;;;;5050857;28;20053;-85
2024/03/29 09:21:57;;;;;;;1999.90;999.90;;;;;;;;;;5049956;28;20053;-85
2024/03/29 09:24:25;;;;;;;1999.90;999.90;;;;;;;;;;5050004;28;20501;-86
2024/03/29 09:26:52;;;;;;;1999.90;999.90;;;;;;;;;;5050617;28;20045;-84
2024/03/29 09:29:20;;;;;;;1999.90;999.90;;;;;;;;;;5050655;28;20052;-85
2024/03/29 09:31:47;;;;;;;1999.90;999.90;;;;;;;;;;5051410;28;20052;-86
2024/03/29 09:34:14;;;;;;;1999.90;999.90;;;;;;;;;;5050577;28;20052;-87
2024/03/29 09:36:41;;;;;;;1999.90;999.90;;;;;;;;;;5050678;28;20413;-86
2024/03/29 09:39:08;;;;;;;1999.90;999.90;;;;;;;;;;5048334;28;20048;-87
2024/03/29 09:41:37;;;;;;;1999.90;999.90;;;;;;;;;;5051176;28;20053;-86
2024/03/29 09:44:06;;;;;;;1999.90;999.90;;;;;;;;;;5050883;28;20136;-84
2024/03/29 09:46:36;;;;;;;1999.90;999.90;;;;;;;;;;5054310;28;20053;-87
2024/03/29 09:49:04;;;;;;;1999.90;999.90;;;;;;;;;;5053145;28;20483;-85
2024/03/29 09:51:32;;;;;;;1999.90;999.90;;;;;;;;;;5053187;28;20513;-88
2024/03/29 09:54:00;;;;;;;1999.90;999.90;;;;;;;;;;5051496;28;20473;-87
2024/03/29 09:56:27;;;;;;;1999.90;999.90;;;;;;;;;;5048654;28;20041;-87
2024/03/29 09:58:54;;;;;;;1999.90;999.90;;;;;;;;;;5051025;28;20055;-87
2024/03/29 10:01:22;;;;;;;1999.90;999.90;;;;;;;;;;5049811;28;20060;-88
2024/03/29 10:03:51;;;;;;;1999.90;999.90;;;;;;;;;;5048193;28;20055;-88
2024/03/29 10:06:19;;;;;;;1999.90;999.90;;;;;;;;;;5050074;28;20056;-88
2024/03/29 10:08:46;;;;;;;1999.90;999.90;;;;;;;;;;5050454;28;20086;-87
2024/03/29 10:11:16;;;;;;;1999.90;999.90;;;;;;;;;;5048876;28;20041;-87
2024/03/29 10:13:44;;;;;;;1999.90;999.90;;;;;;;;;;5050351;28;20041;-87
2024/03/29 10:16:12;;;;;;;1999.90;999.90;;;;;;;;;;5050633;28;20041;-86
2024/03/29 10:18:41;;;;;;;1999.90;999.90;;;;;;;;;;5050440;28;20805;-87
2024/03/29 10:21:09;;;;;;;1999.90;999.90;;;;;;;;;;5048772;28;20053;-87
2024/03/29 10:23:36;;;;;;;1999.90;999.90;;;;;;;;;;5050915;28;20053;-88
2024/03/29 10:26:04;;;;;;;1999.90;999.90;;;;;;;;;;5049705;28;20045;-87
2024/03/29 10:28:33;;;;;;;1999.90;999.90;;;;;;;;;;5051088;28;20052;-88
2024/03/29 10:31:00;;;;;;;1999.90;999.90;;;;;;;;;;5047932;28;20422;-88
2024/03/29 10:33:29;;;;;;;1999.90;999.90;;;;;;;;;;5049935;28;20056;-88
2024/03/29 10:35:56;;;;;;;1999.90;999.90;;;;;;;;;;5050387;28;20090;-89
2024/03/29 10:38:25;;;;;;;1999.90;999.90;;;;;;;;;;5047827;28;20132;-86
2024/03/29 10:40:52;;;;;;;1999.90;999.90;;;;;;;;;;5047609;28;20049;-86
2024/03/29 10:43:20;;;;;;;1999.90;999.90;;;;;;;;;;5046247;28;20916;-88
2024/03/29 10:45:48;;;;;;;1999.90;999.90;;;;;;;;;;5049275;28;20052;-87
2024/03/29 10:48:16;;;;;;;1999.90;999.90;;;;;;;;;;5049677;28;20052;-88
2024/03/29 10:50:44;;;;;;;1999.90;999.90;;;;;;;;;;5049528;28;20390;-87
2024/03/29 10:53:11;;;;;;;1999.90;999.90;;;;;;;;;;5048808;28;20068;-87
2024/03/29 10:55:39;;;;;;;1999.90;999.90;;;;;;;;;;5048215;28;20114;-87
2024/03/29 10:58:06;;;;;;;1999.90;999.90;;;;;;;;;;5048507;28;20044;-87
2024/03/29 11:00:38;;;;;;;1999.90;999.90;;;;;;;;;;5048369;28;20048;-87
2024/03/29 11:03:15;;;;;;;1999.90;999.90;;;;;;;;;;5049359;28;20044;-87
2024/03/29 11:05:45;;;;;;;1999.90;999.90;;;;;;;;;;5048328;28;20056;-87
2024/03/29 11:08:14;;;;;;;1999.90;999.90;;;;;;;;;;5050437;28;20057;-87
2024/03/29 11:10:46;;;;;;;1999.90;999.90;;;;;;;;;;5048306;28;20056;-87
2024/03/29 11:13:23;;;;;;;1999.90;999.90;;;;;;;;;;5049935;28;20139;-87
2024/03/29 11:15:51;;;;;;;1999.90;999.90;;;;;;;;;;5049714;28;20520;-87
2024/03/29 11:18:19;;;;;;;1999.90;999.90;;;;;;;;;;5047927;28;20484;-86
2024/03/29 11:20:50;;;;;;;1999.90;999.90;;;;;;;;;;5048849;28;20654;-87
2024/03/29 11:23:19;;;;;;;1999.90;999.90;;;;;;;;;;5049500;28;20052;-87
2024/03/29 11:25:50;;;;;;;1999.90;999.90;;;;;;;;;;5048743;28;20045;-87
2024/03/29 11:28:25;;;;;;;1999.90;999.90;;;;;;;;;;5049946;28;20559;-87
2024/03/29 11:30:53;;;;;;;1999.90;999.90;;;;;;;;;;5049616;28;20049;-87
2024/03/29 11:33:31;;;;;;;1999.90;999.90;;;;;;;;;;5049890;28;20064;-87
2024/03/29 11:35:58;;;;;;;1999.90;999.90;;;;;;;;;;5049176;28;20049;-87
2024/03/29 11:38:35;;;;;;;1999.90;999.90;;;;;;;;;;5049836;28;20053;-87
2024/03/29 11:41:04;;;;;;;1999.90;999.90;;;;;;;;;;5049270;28;20053;-87
2024/03/29 11:43:32;;;;;;;1999.90;999.90;;;;;;;;;;5050188;28;20099;-89
2024/03/29 11:46:00;;;;;;;1999.90;999.90;;;;;;;;;;5049939;28;20051;-88
2024/03/29 11:48:28;;;;;;;1999.90;999.90;;;;;;;;;;5047972;28;20168;-87
2024/03/29 11:50:55;;;;;;;1999.90;999.90;;;;;;;;;;5050540;28;20406;-87
2024/03/29 11:53:22;;;;;;;1999.90;999.90;;;;;;;;;;5047047;28;20045;-87
2024/03/29 11:55:53;;;;;;;1999.90;999.90;;;;;;;;;;5053978;28;20048;-87
2024/03/29 11:58:22;;;;;;;1999.90;999.90;;;;;;;;;;5051727;28;20285;-86
2024/03/29 12:00:50;;;;;;;1999.90;999.90;;;;;;;;;;5052037;28;20114;-88
2024/03/29 12:03:17;;;;;;;1999.90;999.90;;;;;;;;;;5052081;28;20049;-88
2024/03/29 12:05:44;;;;;;;1999.90;999.90;;;;;;;;;;5050057;28;20505;-89
2024/03/29 12:08:11;;;;;;;1999.90;999.90;;;;;;;;;;5053673;28;20056;-86
2024/03/29 12:10:38;;;;;;;1999.90;999.90;;;;;;;;;;5052917;28;20061;-87
2024/03/29 12:13:05;;;;;;;1999.90;999.90;;;;;;;;;;5053591;28;20041;-87
2024/03/29 12:15:34;;;;;;;1999.90;999.90;;;;;;;;;;5053983;28;20391;-89
2024/03/29 12:18:02;;;;;;;1999.90;999.90;;;;;;;;;;5053183;28;20060;-89
2024/03/29 12:20:30;;;;;;;1999.90;999.90;;;;;;;;;;5053962;28;20130;-86
2024/03/29 12:22:59;;;;;;;1999.90;999.90;;;;;;;;;;5053688;28;20045;-87
2024/03/29 12:25:27;;;;;;;1999.90;999.90;;;;;;;;;;5053931;28;20045;-89
2024/03/29 12:27:54;;;;;;;1999.90;999.90;;;;;;;;;;5054066;28;20047;-89
2024/03/29 12:30:20;;;;;;;1999.90;999.90;;;;;;;;;;5053124;28;20472;-88
2024/03/29 12:32:48;;;;;;;1999.90;999.90;;;;;;;;;;5053353;28;20051;-87
2024/03/29 12:35:17;;;;;;;1999.90;999.90;;;;;;;;;;5053833;28;20051;-87
2024/03/29 12:37:49;;;;;;;1999.90;999.90;;;;;;;;;;5052567;28;20512;-85
2024/03/29 12:40:21;;;;;;;1999.90;999.90;;;;;;;;;;5053556;28;20055;-91
2024/03/29 12:42:48;;;;;;;1999.90;999.90;;;;;;;;;;5051389;28;20053;-87
2024/03/29 12:45:14;;;;;;;1999.90;999.90;;;;;;;;;;5051330;28;20045;-88
2024/03/29 12:47:41;;;;;;;1999.90;999.90;;;;;;;;;;5053652;28;20076;-89
2024/03/29 12:50:10;;;;;;;1999.90;999.90;;;;;;;;;;5052312;28;20055;-88
2024/03/29 12:52:41;;;;;;;1999.90;999.90;;;;;;;;;;5053709;28;20045;-88
2024/03/29 12:55:09;;;;;;;1999.90;999.90;;;;;;;;;;5051878;28;20041;-87
2024/03/29 12:57:36;;;;;;;1999.90;999.90;;;;;;;;;;5052799;28;20072;-88
2024/03/29 13:00:08;;;;;;;1999.90;999.90;;;;;;;;;;5052220;28;20049;-88
2024/03/29 13:02:38;;;;;;;1999.90;999.90;;;;;;;;;;5053457;28;20049;-89
2024/03/29 13:05:05;;;;;;;1999.90;999.90;;;;;;;;;;5052953;28;20061;-89
2024/03/29 13:07:34;;;;;;;1999.90;999.90;;;;;;;;;;5052619;28;20044;-89
2024/03/29 13:10:06;;;;;;;1999.90;999.90;;;;;;;;;;5052092;28;20048;-88
2024/03/29 13:12:33;;;;;;;1999.90;999.90;;;;;;;;;;5053067;28;20045;-89
2024/03/29 13:15:05;;;;;;;1999.90;999.90;;;;;;;;;;5052772;28;20041;-90
2024/03/29 13:17:31;;;;;;;1999.90;999.90;;;;;;;;;;5052567;28;20118;-89
2024/03/29 13:19:59;;;;;;;1999.90;999.90;;;;;;;;;;5051901;28;20107;-89
2024/03/29 13:22:26;;;;;;;1999.90;999.90;;;;;;;;;;5052074;28;20435;-90
2024/03/29 13:24:54;;;;;;;1999.90;999.90;;;;;;;;;;5051328;28;20045;-91
2024/03/29 13:27:20;;;;;;;1999.90;999.90;;;;;;;;;;5052483;28;20060;-83
2024/03/29 13:29:47;;;;;;;1999.90;999.90;;;;;;;;;;5051416;28;20045;-89
2024/03/29 13:32:13;;;;;;;1999.90;999.90;;;;;;;;;;5049921;28;20041;-89
2024/03/29 13:34:40;;;;;;;1999.90;999.90;;;;;;;;;;5050966;28;20057;-86
2024/03/29 13:37:07;;;;;;;1999.90;999.90;;;;;;;;;;5051042;28;20076;-86
2024/03/29 13:39:33;;;;;;;1999.90;999.90;;;;;;;;;;5053274;28;20116;-89
2024/03/29 13:42:01;;;;;;;1999.90;999.90;;;;;;;;;;5056469;28;20049;-86
2024/03/29 13:44:28;;;;;;;1999.90;999.90;;;;;;;;;;5051498;28;20052;-93
2024/03/29 13:46:54;;;;;;;1999.90;999.90;;;;;;;;;;5052259;28;20060;-88
2024/03/29 13:49:21;;;;;;;1999.90;999.90;;;;;;;;;;5051732;28;20063;-88
2024/03/29 13:51:49;;;;;;;1999.90;999.90;;;;;;;;;;5052987;28;20347;-89
2024/03/29 13:54:15;;;;;;;1999.90;999.90;;;;;;;;;;5051851;28;20488;-87
2024/03/29 13:56:42;;;;;;;1999.90;999.90;;;;;;;;;;5050673;28;20045;-89
2024/03/29 13:59:10;;;;;;;1999.90;999.90;;;;;;;;;;5048273;28;20049;-90
2024/03/29 14:01:42;;;;;;;1999.90;999.90;;;;;;;;;;5052817;28;20122;-87
2024/03/29 14:04:08;;;;;;;1999.90;999.90;;;;;;;;;;5051760;28;20049;-89
2024/03/29 14:06:35;;;;;;;1999.90;999.90;;;;;;;;;;5050799;28;20354;-88
2024/03/29 14:09:02;;;;;;;1999.90;999.90;;;;;;;;;;5051030;28;20044;-86
2024/03/29 14:11:29;;;;;;;1999.90;999.90;;;;;;;;;;5050689;28;20048;-86
2024/03/29 14:13:55;;;;;;;1999.90;999.90;;;;;;;;;;5049001;28;20072;-86
2024/03/29 14:16:23;;;;;;;1999.90;999.90;;;;;;;;;;5049784;28;20508;-86
2024/03/29 14:18:50;;;;;;;1999.90;999.90;;;;;;;;;;5048917;28;20120;-88
2024/03/29 14:21:16;;;;;;;1999.90;999.90;;;;;;;;;;5050426;28;20060;-87
2024/03/29 14:23:43;;;;;;;1999.90;999.90;;;;;;;;;;5049523;28;20052;-88
2024/03/29 14:26:09;;;;;;;1999.90;999.90;;;;;;;;;;5049635;28;20060;-88
2024/03/29 14:28:36;;;;;;;1999.90;999.90;;;;;;;;;;5050587;28;20073;-89
2024/03/29 14:31:03;;;;;;;1999.90;999.90;;;;;;;;;;5050263;28;20103;-87
2024/03/29 14:33:31;;;;;;;1999.90;999.90;;;;;;;;;;5052181;28;20072;-88
2024/03/29 14:35:58;;;;;;;1999.90;999.90;;;;;;;;;;5049101;28;20060;-88
2024/03/29 14:38:24;;;;;;;1999.90;999.90;;;;;;;;;;5049184;28;20053;-88
2024/03/29 14:40:51;;;;;;;1999.90;999.90;;;;;;;;;;5051798;28;20048;-92
2024/03/29 14:43:18;;;;;;;1999.90;999.90;;;;;;;;;;5051117;28;20044;-91
2024/03/29 14:45:45;;;;;;;1999.90;999.90;;;;;;;;;;5053190;28;20079;-94
2024/03/29 14:48:11;;;;;;;1999.90;999.90;;;;;;;;;;5057158;28;20062;-90
2024/03/29 14:50:39;;;;;;;1999.90;999.90;;;;;;;;;;5056718;28;20053;-92
2024/03/29 14:53:06;;;;;;;1999.90;999.90;;;;;;;;;;5056315;28;20048;-94
2024/03/29 14:55:33;;;;;;;1999.90;999.90;;;;;;;;;;5053468;28;20045;-88
2024/03/29 14:57:59;;;;;;;1999.90;999.90;;;;;;;;;;5051188;28;20060;-87
2024/03/29 15:00:26;;;;;;;1999.90;999.90;;;;;;;;;;5059326;28;20044;-89
2024/03/29 15:02:52;;;;;;;1999.90;999.90;;;;;;;;;;5060239;28;20041;-88
2024/03/29 15:05:19;;;;;;;1999.90;999.90;;;;;;;;;;5057012;28;20121;-88
2024/03/29 15:07:47;;;;;;;1999.90;999.90;;;;;;;;;;5054358;28;20056;-88
2024/03/29 15:10:14;;;;;;;1999.90;999.90;;;;;;;;;;5052768;28;20147;-87
2024/03/29 15:12:40;;;;;;;1999.90;999.90;;;;;;;;;;5049972;28;20060;-88
2024/03/29 15:15:08;;;;;;;1999.90;999.90;;;;;;;;;;5050005;28;20159;-88
2024/03/29 15:17:34;;;;;;;1999.90;999.90;;;;;;;;;;5050708;28;20049;-86
2024/03/29 15:20:04;;;;;;;1999.90;999.90;;;;;;;;;;5051549;28;20049;-90
2024/03/29 15:22:31;;;;;;;1999.90;999.90;;;;;;;;;;5049162;28;20051;-90
2024/03/29 15:25:00;;;;;;;1999.90;999.90;;;;;;;;;;5050363;28;20045;-88
2024/03/29 15:29:07;;;;;;;1999.90;999.90;;;;;;;;;;5050573;28;20059;-89
2024/03/29 15:30:21;;;;;;;1999.90;999.90;;;;;;;;;;5055502;28;20569;-88
2024/03/29 15:32:47;;;;;;;1999.90;999.90;;;;;;;;;;5054884;28;20124;-89